Time;durP1;ratioP1;P1;durP2;ratioP2;P2;SDS_P1;SDS_P2;PMS_P1;PMS_P2;Temp;Humidity;BMP_temperature;BMP_pressure;BME280_temperature;BME280_humidity;BME280_pressure;Samples;Min_cycle;Max_cycle;Signal;HPM_P1;HPM_P2
2023/08/17 00:02:13;;;;;;;1999.90;999.90;;;20.30;99.90;;;;;;5137058;27;20034;-76
2023/08/17 00:04:40;;;;;;;1999.90;999.90;;;20.20;99.90;;;;;;5136015;27;20059;-76
2023/08/17 00:07:05;;;;;;;1999.90;999.90;;;20.30;99.90;;;;;;5136703;27;20721;-76
2023/08/17 00:09:32;;;;;;;1999.90;999.90;;;20.20;99.90;;;;;;5137867;27;20034;-76
2023/08/17 00:11:57;;;;;;;1999.90;999.90;;;20.20;99.90;;;;;;5136564;27;20040;-76
2023/08/17 00:14:23;;;;;;;1999.90;999.90;;;20.20;99.90;;;;;;5136500;27;20036;-76
2023/08/17 00:16:52;;;;;;;1999.90;999.90;;;20.20;99.90;;;;;;5136171;27;20040;-76
2023/08/17 00:19:18;;;;;;;1999.90;999.90;;;20.10;99.90;;;;;;5136175;27;20031;-76
2023/08/17 00:21:45;;;;;;;1999.90;999.90;;;20.20;99.90;;;;;;5136579;27;20032;-76
2023/08/17 00:24:11;;;;;;;1999.90;999.90;;;20.10;99.90;;;;;;5134733;27;20031;-77
2023/08/17 00:26:37;;;;;;;1999.90;999.90;;;20.10;99.90;;;;;;5136331;27;20035;-76
2023/08/17 00:29:03;;;;;;;1999.90;999.90;;;20.00;99.90;;;;;;5136221;27;20058;-76
2023/08/17 00:31:28;;;;;;;1999.90;999.90;;;20.00;99.90;;;;;;5136181;27;20452;-76
2023/08/17 00:33:54;;;;;;;1999.90;999.90;;;20.10;99.90;;;;;;5136183;27;20065;-75
2023/08/17 00:36:19;;;;;;;1999.90;999.90;;;20.00;99.90;;;;;;5136115;27;20524;-76
2023/08/17 00:38:45;;;;;;;1999.90;999.90;;;20.00;99.90;;;;;;5136051;27;20023;-75
2023/08/17 00:41:10;;;;;;;1999.90;999.90;;;19.90;99.90;;;;;;5134757;27;20072;-76
2023/08/17 00:43:36;;;;;;;1999.90;999.90;;;19.90;99.90;;;;;;5134675;27;20023;-75
2023/08/17 00:46:02;;;;;;;1999.90;999.90;;;19.80;99.90;;;;;;5136044;27;20040;-76
2023/08/17 00:48:31;;;;;;;1999.90;999.90;;;19.80;99.90;;;;;;5136089;27;20035;-75
2023/08/17 00:50:58;;;;;;;1999.90;999.90;;;19.80;99.90;;;;;;5136215;27;20043;-76
2023/08/17 00:53:28;;;;;;;1999.90;999.90;;;19.80;99.90;;;;;;5136130;27;20057;-77
2023/08/17 00:55:53;;;;;;;1999.90;999.90;;;19.60;99.90;;;;;;5135609;27;20044;-77
2023/08/17 00:58:20;;;;;;;1999.90;999.90;;;19.70;99.90;;;;;;5134259;27;20027;-76
2023/08/17 01:00:46;;;;;;;1999.90;999.90;;;19.70;99.90;;;;;;5134480;27;20031;-77
2023/08/17 01:03:12;;;;;;;1999.90;999.90;;;19.60;99.90;;;;;;5134989;27;20503;-78
2023/08/17 01:05:37;;;;;;;1999.90;999.90;;;19.60;99.90;;;;;;5140464;27;20036;-77
2023/08/17 01:08:04;;;;;;;1999.90;999.90;;;19.60;99.90;;;;;;5139320;27;20059;-75
2023/08/17 01:10:55;;;;;;;1999.90;999.90;;;19.50;99.90;;;;;;5135661;27;20500;-76
2023/08/17 01:13:44;;;;;;;1999.90;999.90;;;19.40;99.90;;;;;;5134331;27;20551;-76
2023/08/17 01:16:14;;;;;;;1999.90;999.90;;;19.40;99.90;;;;;;5134013;27;20043;-75
2023/08/17 01:18:40;;;;;;;1999.90;999.90;;;19.40;99.90;;;;;;5135021;27;20031;-75
2023/08/17 01:21:09;;;;;;;1999.90;999.90;;;19.30;99.90;;;;;;5138967;27;20404;-75
2023/08/17 01:23:35;;;;;;;1999.90;999.90;;;19.30;99.90;;;;;;5139320;27;20032;-75
2023/08/17 01:26:01;;;;;;;1999.90;999.90;;;19.30;99.90;;;;;;5138843;27;20036;-76
2023/08/17 01:28:27;;;;;;;1999.90;999.90;;;19.30;99.90;;;;;;5137470;27;20051;-76
2023/08/17 01:31:14;;;;;;;1999.90;999.90;;;19.30;99.90;;;;;;5139333;27;20036;-75
2023/08/17 01:33:49;;;;;;;1999.90;999.90;;;19.30;99.90;;;;;;5137834;27;20034;-75
2023/08/17 01:36:44;;;;;;;1999.90;999.90;;;19.30;99.90;;;;;;5139104;27;20551;-75
2023/08/17 01:39:11;;;;;;;1999.90;999.90;;;19.30;99.90;;;;;;5136380;27;20044;-75
2023/08/17 01:41:38;;;;;;;1999.90;999.90;;;19.30;99.90;;;;;;5139155;27;20366;-75
2023/08/17 01:44:04;;;;;;;1999.90;999.90;;;19.20;99.90;;;;;;5138835;27;20153;-75
2023/08/17 01:46:32;;;;;;;1999.90;999.90;;;19.30;99.90;;;;;;5136437;27;20039;-76
2023/08/17 01:48:58;;;;;;;1999.90;999.90;;;19.30;99.90;;;;;;5138793;27;20023;-75
2023/08/17 01:51:25;;;;;;;1999.90;999.90;;;19.30;99.90;;;;;;5138987;27;20036;-75
2023/08/17 01:53:50;;;;;;;1999.90;999.90;;;19.20;99.90;;;;;;5137332;27;20119;-75
2023/08/17 01:56:16;;;;;;;1999.90;999.90;;;19.20;99.90;;;;;;5138616;27;20040;-75
2023/08/17 01:58:42;;;;;;;1999.90;999.90;;;19.30;99.90;;;;;;5138806;27;20032;-75
2023/08/17 02:01:07;;;;;;;1999.90;999.90;;;19.20;99.90;;;;;;5137267;27;20028;-75
2023/08/17 02:03:33;;;;;;;1999.90;999.90;;;19.10;99.90;;;;;;5138697;27;20484;-75
2023/08/17 02:06:01;;;;;;;1999.90;999.90;;;19.20;99.90;;;;;;5138345;27;20046;-75
2023/08/17 02:08:27;;;;;;;1999.90;999.90;;;19.10;99.90;;;;;;5138423;27;20516;-75
2023/08/17 02:10:53;;;;;;;1999.90;999.90;;;19.00;99.90;;;;;;5138658;27;20036;-75
2023/08/17 02:13:19;;;;;;;1999.90;999.90;;;19.00;99.90;;;;;;5138698;27;20444;-75
2023/08/17 02:15:46;;;;;;;1999.90;999.90;;;18.90;99.90;;;;;;5138264;27;20046;-75
2023/08/17 02:18:11;;;;;;;1999.90;999.90;;;18.90;99.90;;;;;;5137605;27;20031;-75
2023/08/17 02:20:37;;;;;;;1999.90;999.90;;;18.90;99.90;;;;;;5136854;27;20046;-75
2023/08/17 02:23:02;;;;;;;1999.90;999.90;;;19.00;99.90;;;;;;5138236;27;20501;-76
2023/08/17 02:25:35;;;;;;;1999.90;999.90;;;19.00;99.90;;;;;;5136520;27;20047;-76
2023/08/17 02:28:03;;;;;;;1999.90;999.90;;;18.90;99.90;;;;;;5138163;27;20020;-75
2023/08/17 02:30:29;;;;;;;1999.90;999.90;;;18.90;99.90;;;;;;5136256;27;20565;-75
2023/08/17 02:32:55;;;;;;;1999.90;999.90;;;18.80;99.90;;;;;;5138078;27;20085;-76
2023/08/17 02:35:20;;;;;;;1999.90;999.90;;;18.80;99.90;;;;;;5137892;27;20060;-75
2023/08/17 02:37:46;;;;;;;1999.90;999.90;;;18.90;99.90;;;;;;5137794;27;20366;-75
2023/08/17 02:40:12;;;;;;;1999.90;999.90;;;18.70;99.90;;;;;;5138168;27;20031;-75
2023/08/17 02:42:39;;;;;;;1999.90;999.90;;;18.70;99.90;;;;;;5136693;27;20500;-75
2023/08/17 02:45:08;;;;;;;1999.90;999.90;;;18.70;99.90;;;;;;5137554;27;20472;-75
2023/08/17 02:47:34;;;;;;;1999.90;999.90;;;18.60;99.90;;;;;;5137870;27;20031;-75
2023/08/17 02:49:59;;;;;;;1999.90;999.90;;;18.60;99.90;;;;;;5136448;27;20160;-75
2023/08/17 02:52:25;;;;;;;1999.90;999.90;;;18.50;99.90;;;;;;5136413;27;20031;-75
2023/08/17 02:54:50;;;;;;;1999.90;999.90;;;18.50;99.90;;;;;;5137703;27;20039;-75
2023/08/17 02:57:16;;;;;;;1999.90;999.90;;;18.60;99.90;;;;;;5137668;27;20031;-75
2023/08/17 02:59:41;;;;;;;1999.90;999.90;;;18.60;99.90;;;;;;5138036;27;20031;-75
2023/08/17 03:02:07;;;;;;;1999.90;999.90;;;18.60;99.90;;;;;;5137715;27;20530;-75
2023/08/17 03:04:33;;;;;;;1999.90;999.90;;;18.50;99.90;;;;;;5137195;27;20120;-75
2023/08/17 03:06:58;;;;;;;1999.90;999.90;;;18.40;99.90;;;;;;5137710;27;20032;-75
2023/08/17 03:09:24;;;;;;;1999.90;999.90;;;18.50;99.90;;;;;;5137502;27;20473;-75
2023/08/17 03:11:49;;;;;;;1999.90;999.90;;;18.50;99.90;;;;;;5136203;27;20149;-75
2023/08/17 03:14:15;;;;;;;1999.90;999.90;;;18.40;99.90;;;;;;5137029;27;20034;-75
2023/08/17 03:16:40;;;;;;;1999.90;999.90;;;18.40;99.90;;;;;;5137468;27;20039;-75
2023/08/17 03:19:07;;;;;;;1999.90;999.90;;;18.40;99.90;;;;;;5132685;22;20051;-74
2023/08/17 03:21:34;;;;;;;1999.90;999.90;;;18.40;99.90;;;;;;5116540;28;20123;-74
2023/08/17 03:23:59;;;;;;;1999.90;999.90;;;18.30;99.90;;;;;;5116313;27;20090;-74
2023/08/17 03:26:25;;;;;;;1999.90;999.90;;;18.30;99.90;;;;;;5114987;28;20078;-74
2023/08/17 03:28:50;;;;;;;1999.90;999.90;;;18.30;99.90;;;;;;5116513;27;20028;-75
2023/08/17 03:31:16;;;;;;;1999.90;999.90;;;18.40;99.90;;;;;;5116666;27;20036;-75
2023/08/17 03:33:41;;;;;;;1999.90;999.90;;;18.20;99.90;;;;;;5115139;28;20043;-74
2023/08/17 03:36:07;;;;;;;1999.90;999.90;;;18.40;99.90;;;;;;5116071;28;20068;-75
2023/08/17 03:38:32;;;;;;;1999.90;999.90;;;18.30;99.90;;;;;;5116275;28;20064;-75
2023/08/17 03:40:58;;;;;;;1999.90;999.90;;;18.20;99.90;;;;;;5116436;28;20032;-74
2023/08/17 03:43:25;;;;;;;1999.90;999.90;;;18.20;99.90;;;;;;5115523;27;20053;-75
2023/08/17 03:45:50;;;;;;;1999.90;999.90;;;18.10;99.90;;;;;;5116061;27;20526;-75
2023/08/17 03:48:16;;;;;;;1999.90;999.90;;;18.20;99.90;;;;;;5115844;28;20031;-74
2023/08/17 03:50:41;;;;;;;1999.90;999.90;;;18.20;99.90;;;;;;5116019;27;20036;-75
2023/08/17 03:53:07;;;;;;;1999.90;999.90;;;18.10;99.90;;;;;;5116121;28;20036;-74
2023/08/17 03:55:32;;;;;;;1999.90;999.90;;;18.10;99.90;;;;;;5115670;28;20036;-74
2023/08/17 03:57:58;;;;;;;1999.90;999.90;;;18.10;99.90;;;;;;5114567;28;20032;-75
2023/08/17 04:00:24;;;;;;;1999.90;999.90;;;18.00;99.90;;;;;;5116189;27;20169;-75
2023/08/17 04:02:49;;;;;;;1999.90;999.90;;;18.00;99.90;;;;;;5114600;27;20036;-74
2023/08/17 04:05:15;;;;;;;1999.90;999.90;;;18.00;99.90;;;;;;5115544;28;20502;-75
2023/08/17 04:07:40;;;;;;;1999.90;999.90;;;17.90;99.90;;;;;;5115717;27;20474;-75
2023/08/17 04:10:07;;;;;;;1999.90;999.90;;;17.90;99.90;;;;;;5115807;27;20047;-75
2023/08/17 04:12:32;;;;;;;1999.90;999.90;;;17.90;99.90;;;;;;5115944;27;20028;-75
2023/08/17 04:14:58;;;;;;;1999.90;999.90;;;18.00;99.90;;;;;;5115624;27;20032;-74
2023/08/17 04:17:24;;;;;;;1999.90;999.90;;;17.80;99.90;;;;;;5115448;27;20488;-74
2023/08/17 04:19:50;;;;;;;1999.90;999.90;;;17.90;99.90;;;;;;5115874;27;20029;-75
2023/08/17 04:22:16;;;;;;;1999.90;999.90;;;17.90;99.90;;;;;;5115984;27;20036;-75
2023/08/17 04:24:41;;;;;;;1999.90;999.90;;;17.80;99.90;;;;;;5115425;27;20028;-75
2023/08/17 04:27:07;;;;;;;1999.90;999.90;;;18.00;99.90;;;;;;5115683;27;20031;-74
2023/08/17 04:29:32;;;;;;;1999.90;999.90;;;18.00;99.90;;;;;;5115781;27;20563;-74
2023/08/17 04:31:58;;;;;;;1999.90;999.90;;;17.90;99.90;;;;;;5114161;28;20039;-75
2023/08/17 04:34:24;;;;;;;1999.90;999.90;;;17.90;99.90;;;;;;5115312;28;20024;-74
2023/08/17 04:36:50;;;;;;;1999.90;999.90;;;17.90;99.90;;;;;;5115429;28;20090;-75
2023/08/17 04:39:16;;;;;;;1999.90;999.90;;;18.00;99.90;;;;;;5115351;27;20524;-73
2023/08/17 04:41:42;;;;;;;1999.90;999.90;;;17.90;99.90;;;;;;5115667;28;20035;-74
2023/08/17 04:44:07;;;;;;;1999.90;999.90;;;18.20;99.90;;;;;;5113964;28;20059;-74
2023/08/17 04:46:33;;;;;;;1999.90;999.90;;;18.10;99.90;;;;;;5116232;27;20043;-75
2023/08/17 04:48:58;;;;;;;1999.90;999.90;;;18.20;99.90;;;;;;5114886;27;20344;-74
2023/08/17 04:51:24;;;;;;;1999.90;999.90;;;18.20;99.90;;;;;;5115478;27;20375;-75
2023/08/17 04:53:50;;;;;;;1999.90;999.90;;;18.40;99.90;;;;;;5114651;27;20370;-75
2023/08/17 04:56:15;;;;;;;1999.90;999.90;;;18.20;99.90;;;;;;5114917;27;20036;-74
2023/08/17 04:58:41;;;;;;;1999.90;999.90;;;18.30;99.90;;;;;;5115113;27;20040;-75
2023/08/17 05:01:06;;;;;;;1999.90;999.90;;;18.40;99.90;;;;;;5115227;28;20047;-74
2023/08/17 05:03:32;;;;;;;1999.90;999.90;;;18.60;99.90;;;;;;5114928;27;20035;-74
2023/08/17 05:05:57;;;;;;;1999.90;999.90;;;18.60;99.90;;;;;;5115105;28;20028;-73
2023/08/17 05:08:23;;;;;;;1999.90;999.90;;;18.70;99.90;;;;;;5113411;27;20782;-75
2023/08/17 05:10:49;;;;;;;1999.90;999.90;;;18.80;99.90;;;;;;5115309;28;20071;-75
2023/08/17 05:13:14;;;;;;;1999.90;999.90;;;18.70;99.90;;;;;;5115277;27;20028;-74
2023/08/17 05:15:40;;;;;;;1999.90;999.90;;;18.80;99.90;;;;;;5114898;28;20454;-75
2023/08/17 05:18:06;;;;;;;1999.90;999.90;;;18.90;99.90;;;;;;5114016;27;20074;-75
2023/08/17 05:20:31;;;;;;;1999.90;999.90;;;18.90;99.90;;;;;;5114974;27;20032;-75
2023/08/17 05:22:57;;;;;;;1999.90;999.90;;;19.00;99.90;;;;;;5114516;27;20396;-74
2023/08/17 05:25:23;;;;;;;1999.90;999.90;;;19.00;99.90;;;;;;5115046;27;20055;-74
2023/08/17 05:27:49;;;;;;;1999.90;999.90;;;19.10;99.90;;;;;;5114811;27;20028;-75
2023/08/17 05:30:15;;;;;;;1999.90;999.90;;;19.10;99.90;;;;;;5114883;28;20027;-74
2023/08/17 05:32:41;;;;;;;1999.90;999.90;;;19.20;99.90;;;;;;5113342;28;20028;-77
2023/08/17 05:35:07;;;;;;;1999.90;999.90;;;19.20;99.90;;;;;;5114544;28;20036;-75
2023/08/17 05:37:33;;;;;;;1999.90;999.90;;;19.30;99.90;;;;;;5113640;27;20044;-75
2023/08/17 05:39:58;;;;;;;1999.90;999.90;;;19.30;99.90;;;;;;5114326;27;20040;-75
2023/08/17 05:42:24;;;;;;;1999.90;999.90;;;19.40;99.90;;;;;;5114599;28;20039;-74
2023/08/17 05:44:49;;;;;;;1999.90;999.90;;;19.50;99.90;;;;;;5112859;28;20440;-75
2023/08/17 05:47:17;;;;;;;1999.90;999.90;;;19.60;99.90;;;;;;5113637;27;20033;-74
2023/08/17 05:49:43;;;;;;;1999.90;999.90;;;19.60;99.90;;;;;;5114660;27;20494;-74
2023/08/17 05:52:09;;;;;;;1999.90;999.90;;;19.60;99.90;;;;;;5114631;27;20040;-74
2023/08/17 05:54:34;;;;;;;1999.90;999.90;;;19.70;99.90;;;;;;5114328;27;20501;-75
2023/08/17 05:57:00;;;;;;;1999.90;999.90;;;19.70;99.90;;;;;;5114730;27;20040;-75
2023/08/17 05:59:25;;;;;;;1999.90;999.90;;;19.60;99.90;;;;;;5114271;28;20032;-75
2023/08/17 06:01:51;;;;;;;1999.90;999.90;;;19.80;99.90;;;;;;5114298;27;20035;-74
2023/08/17 06:04:16;;;;;;;1999.90;999.90;;;19.80;99.90;;;;;;5114261;27;20054;-74
2023/08/17 06:06:42;;;;;;;1999.90;999.90;;;20.00;99.90;;;;;;5116867;27;20039;-74
2023/08/17 06:09:08;;;;;;;1999.90;999.90;;;20.20;99.90;;;;;;5117567;28;20085;-73
2023/08/17 06:11:34;;;;;;;1999.90;999.90;;;20.10;99.90;;;;;;5117816;28;20130;-73
2023/08/17 06:13:59;;;;;;;1999.90;999.90;;;20.10;99.90;;;;;;5117393;27;20158;-74
2023/08/17 06:16:25;;;;;;;1999.90;999.90;;;20.30;99.90;;;;;;5116285;28;20475;-74
2023/08/17 06:18:51;;;;;;;1999.90;999.90;;;20.50;99.90;;;;;;5117156;27;20074;-74
2023/08/17 06:21:16;;;;;;;1999.90;999.90;;;20.50;99.90;;;;;;5117429;28;20039;-74
2023/08/17 06:23:42;;;;;;;1999.90;999.90;;;20.30;99.90;;;;;;5116836;27;20032;-74
2023/08/17 06:26:07;;;;;;;1999.90;999.90;;;20.30;99.90;;;;;;5117342;28;20398;-74
2023/08/17 06:28:33;;;;;;;1999.90;999.90;;;20.20;99.90;;;;;;5117316;27;20440;-73
2023/08/17 06:30:58;;;;;;;1999.90;999.90;;;20.20;99.90;;;;;;5117445;27;20036;-74
2023/08/17 06:33:24;;;;;;;1999.90;999.90;;;20.20;99.90;;;;;;5117373;27;20035;-74
2023/08/17 06:35:50;;;;;;;1999.90;999.90;;;20.20;99.90;;;;;;5115500;28;20040;-74
2023/08/17 06:38:15;;;;;;;1999.90;999.90;;;20.40;99.90;;;;;;5115635;28;20161;-74
2023/08/17 06:40:41;;;;;;;1999.90;999.90;;;20.70;99.90;;;;;;5117410;27;20118;-74
2023/08/17 06:43:07;;;;;;;1999.90;999.90;;;20.60;99.90;;;;;;5115927;27;20154;-74
2023/08/17 06:45:33;;;;;;;1999.90;999.90;;;20.70;99.90;;;;;;5116982;27;20028;-74
2023/08/17 06:47:59;;;;;;;1999.90;999.90;;;20.80;99.90;;;;;;5117212;27;20032;-74
2023/08/17 06:50:26;;;;;;;1999.90;999.90;;;20.80;99.90;;;;;;5117063;27;20036;-73
2023/08/17 06:52:52;;;;;;;1999.90;999.90;;;20.70;99.90;;;;;;5117130;27;20496;-74
2023/08/17 06:55:18;;;;;;;1999.90;999.90;;;20.60;99.90;;;;;;5116484;27;20031;-74
2023/08/17 06:57:44;;;;;;;1999.90;999.90;;;20.80;99.90;;;;;;5115310;28;20039;-74
2023/08/17 07:00:11;;;;;;;1999.90;999.90;;;21.10;99.90;;;;;;5117032;27;20063;-73
2023/08/17 07:02:37;;;;;;;1999.90;999.90;;;21.30;99.90;;;;;;5116958;27;20032;-74
2023/08/17 07:05:03;;;;;;;1999.90;999.90;;;21.80;99.90;;;;;;5116857;28;20024;-74
2023/08/17 07:07:31;;;;;;;1999.90;999.90;;;22.10;99.90;;;;;;5116713;27;20262;-74
2023/08/17 07:09:57;;;;;;;1999.90;999.90;;;21.90;99.90;;;;;;5116933;27;20485;-74
2023/08/17 07:12:23;;;;;;;1999.90;999.90;;;22.00;99.90;;;;;;5115498;28;20070;-74
2023/08/17 07:14:49;;;;;;;1999.90;999.90;;;22.00;99.90;;;;;;5116610;27;20468;-74
2023/08/17 07:17:15;;;;;;;1999.90;999.90;;;21.90;99.90;;;;;;5114757;27;20036;-74
2023/08/17 07:19:41;;;;;;;1999.90;999.90;;;22.10;99.90;;;;;;5116626;27;20064;-74
2023/08/17 07:22:06;;;;;;;1999.90;999.90;;;22.30;99.90;;;;;;5116732;28;20063;-74
2023/08/17 07:24:32;;;;;;;1999.90;999.90;;;22.60;99.90;;;;;;5116658;27;20032;-74
2023/08/17 07:26:57;;;;;;;1999.90;999.90;;;22.60;99.90;;;;;;5116671;27;20478;-74
2023/08/17 07:29:23;;;;;;;1999.90;999.90;;;22.70;99.90;;;;;;5116365;27;20470;-74
2023/08/17 07:31:48;;;;;;;1999.90;999.90;;;22.60;99.90;;;;;;5116575;27;20115;-74
2023/08/17 07:34:14;;;;;;;1999.90;999.90;;;22.60;99.90;;;;;;5116178;27;20111;-74
2023/08/17 07:36:40;;;;;;;1999.90;999.90;;;22.50;99.90;;;;;;5116425;27;20036;-73
2023/08/17 07:39:05;;;;;;;1999.90;999.90;;;22.50;99.90;;;;;;5116262;27;20038;-74
2023/08/17 07:41:31;;;;;;;1999.90;999.90;;;22.30;99.90;;;;;;5116429;28;20039;-72
2023/08/17 07:43:57;;;;;;;1999.90;999.90;;;22.30;99.90;;;;;;5115768;27;20409;-72
2023/08/17 07:46:22;;;;;;;1999.90;999.90;;;22.40;99.90;;;;;;5116450;27;20040;-72
2023/08/17 07:48:48;;;;;;;1999.90;999.90;;;22.60;99.90;;;;;;5115973;27;20888;-72
2023/08/17 07:51:14;;;;;;;1999.90;999.90;;;22.70;99.90;;;;;;5116238;27;20067;-72
2023/08/17 07:53:40;;;;;;;1999.90;999.90;;;23.00;99.90;;;;;;5116301;27;20090;-72
2023/08/17 07:56:06;;;;;;;1999.90;999.90;;;23.00;99.90;;;;;;5115782;27;20036;-72
2023/08/17 07:58:31;;;;;;;1999.90;999.90;;;23.00;99.90;;;;;;5114439;28;20054;-72
2023/08/17 08:00:57;;;;;;;1999.90;999.90;;;23.10;99.90;;;;;;5116127;27;20035;-72
2023/08/17 08:03:22;;;;;;;1999.90;999.90;;;23.50;99.90;;;;;;5115958;27;20028;-72
2023/08/17 08:05:48;;;;;;;1999.90;999.90;;;23.60;99.90;;;;;;5115703;27;20035;-72
2023/08/17 08:08:14;;;;;;;1999.90;999.90;;;23.70;99.90;;;;;;5115464;27;20024;-72
2023/08/17 08:10:40;;;;;;;1999.90;999.90;;;23.60;99.90;;;;;;5116128;27;20032;-71
2023/08/17 08:13:06;;;;;;;1999.90;999.90;;;23.30;99.90;;;;;;5115941;27;20028;-75
2023/08/17 08:15:33;;;;;;;1999.90;999.90;;;23.10;99.90;;;;;;5113976;28;20085;-75
2023/08/17 08:17:58;;;;;;;1999.90;999.90;;;23.10;99.90;;;;;;5115121;27;20119;-75
2023/08/17 08:20:24;;;;;;;1999.90;999.90;;;23.20;99.90;;;;;;5114135;28;20575;-74
2023/08/17 08:22:49;;;;;;;1999.90;999.90;;;23.40;99.90;;;;;;5116126;27;20082;-74
2023/08/17 08:25:15;;;;;;;1999.90;999.90;;;23.80;99.90;;;;;;5115638;27;20401;-75
2023/08/17 08:27:41;;;;;;;1999.90;999.90;;;23.80;99.90;;;;;;5115453;27;20118;-74
2023/08/17 08:30:07;;;;;;;1999.90;999.90;;;23.60;99.90;;;;;;5115513;27;20089;-74
2023/08/17 08:32:32;;;;;;;1999.90;999.90;;;23.60;99.90;;;;;;5115531;27;20082;-74
2023/08/17 08:34:58;;;;;;;1999.90;999.90;;;23.90;99.90;;;;;;5115223;27;20541;-74
2023/08/17 08:37:24;;;;;;;1999.90;999.90;;;24.20;99.90;;;;;;5115500;27;20040;-74
2023/08/17 08:39:54;;;;;;;1999.90;999.90;;;24.40;99.90;;;;;;5115688;27;20198;-75
2023/08/17 08:42:21;;;;;;;1999.90;999.90;;;24.40;99.90;;;;;;5115439;27;20186;-75
2023/08/17 08:44:47;;;;;;;1999.90;999.90;;;24.50;99.90;;;;;;5115324;27;20040;-74
2023/08/17 08:47:13;;;;;;;1999.90;999.90;;;24.60;99.90;;;;;;5115464;27;20028;-74
2023/08/17 08:49:40;;;;;;;1999.90;999.90;;;24.70;99.90;;;;;;5115418;27;20103;-74
2023/08/17 08:52:08;;;;;;;1999.90;999.90;;;24.60;99.90;;;;;;5115518;27;20508;-73
2023/08/17 08:54:36;;;;;;;1999.90;999.90;;;24.50;99.90;;;;;;5115180;27;20032;-73
2023/08/17 08:57:08;;;;;;;1999.90;999.90;;;24.40;99.90;;;;;;5115155;27;20503;-75
2023/08/17 08:59:34;;;;;;;1999.90;999.90;;;24.30;99.90;;;;;;5115440;27;20028;-76
2023/08/17 09:02:00;;;;;;;1999.90;999.90;;;24.00;99.90;;;;;;5113895;28;20421;-75
2023/08/17 09:04:26;;;;;;;1999.90;999.90;;;23.80;99.90;;;;;;5114811;27;20032;-75
2023/08/17 09:06:51;;;;;;;1999.90;999.90;;;24.10;99.90;;;;;;5113782;28;20032;-75
2023/08/17 09:09:18;;;;;;;1999.90;999.90;;;24.50;99.90;;;;;;5115257;27;20032;-75
2023/08/17 09:11:43;;;;;;;1999.90;999.90;;;24.50;99.90;;;;;;5113864;28;20535;-75
2023/08/17 09:14:10;;;;;;;1999.90;999.90;;;24.50;99.90;;;;;;5114782;27;20044;-75
2023/08/17 09:16:36;;;;;;;1999.90;999.90;;;24.80;99.90;;;;;;5115129;27;20044;-74
2023/08/17 09:19:01;;;;;;;1999.90;999.90;;;24.80;99.90;;;;;;5149999;22;20051;-75
2023/08/17 09:21:32;;;;;;;1999.90;999.90;;;24.90;99.90;;;;;;5135646;27;20052;-75
2023/08/17 09:23:58;;;;;;;1999.90;999.90;;;24.80;99.90;;;;;;5133953;27;20032;-77
2023/08/17 09:26:24;;;;;;;1999.90;999.90;;;24.70;99.90;;;;;;5135711;27;20040;-76
2023/08/17 09:28:54;;;;;;;1999.90;999.90;;;24.70;99.90;;;;;;5133912;27;20027;-77
2023/08/17 09:31:24;;;;;;;1999.90;999.90;;;24.70;99.90;;;;;;5135536;27;20035;-77
2023/08/17 09:33:52;;;;;;;1999.90;999.90;;;24.80;99.90;;;;;;5135480;27;20594;-77
2023/08/17 09:36:22;;;;;;;1999.90;999.90;;;24.90;99.90;;;;;;5133948;27;20036;-77
2023/08/17 09:38:51;;;;;;;1999.90;999.90;;;24.90;99.90;;;;;;5135330;27;20096;-76
2023/08/17 09:41:18;;;;;;;1999.90;999.90;;;25.10;99.90;;;;;;5137422;27;20027;-76
2023/08/17 09:43:44;;;;;;;1999.90;999.90;;;25.00;99.90;;;;;;5138789;27;20478;-76
2023/08/17 09:46:10;;;;;;;1999.90;999.90;;;25.10;99.90;;;;;;5138830;27;20445;-76
2023/08/17 09:48:36;;;;;;;1999.90;999.90;;;25.10;99.90;;;;;;5137419;27;20031;-76
2023/08/17 09:51:02;;;;;;;1999.90;999.90;;;25.30;99.90;;;;;;5138985;27;20504;-77
2023/08/17 09:53:28;;;;;;;1999.90;999.90;;;25.10;99.90;;;;;;5138789;27;20103;-76
2023/08/17 09:55:57;;;;;;;1999.90;999.90;;;25.10;99.90;;;;;;5138621;27;20046;-76
2023/08/17 09:58:22;;;;;;;1999.90;999.90;;;25.10;99.90;;;;;;5138421;27;20107;-75
2023/08/17 10:00:50;;;;;;;1999.90;999.90;;;25.60;99.90;;;;;;5139022;27;20103;-75
2023/08/17 10:03:17;;;;;;;1999.90;999.90;;;25.50;99.90;;;;;;5138545;27;20031;-76
2023/08/17 10:05:46;;;;;;;1999.90;999.90;;;25.60;99.90;;;;;;5136954;27;20492;-75
2023/08/17 10:08:12;;;;;;;1999.90;999.90;;;25.50;99.90;;;;;;5140065;27;20523;-78
2023/08/17 10:10:43;;;;;;;1999.90;999.90;;;25.70;99.90;;;;;;5139441;27;20043;-75
2023/08/17 10:13:10;;;;;;;1999.90;999.90;;;25.70;99.90;;;;;;5139277;27;20023;-76
2023/08/17 10:16:18;;;;;;;1999.90;999.90;;;26.00;99.90;;;;;;5137065;27;20610;-74
2023/08/17 10:18:59;;;;;;;1999.90;999.90;;;26.10;99.90;;;;;;5128404;27;20051;-79
2023/08/17 10:21:44;;;;;;;1999.90;999.90;;;26.10;99.90;;;;;;5138154;27;20115;-75
2023/08/17 10:24:10;;;;;;;1999.90;999.90;;;26.10;99.90;;;;;;5138431;27;20057;-75
2023/08/17 10:26:36;;;;;;;1999.90;999.90;;;26.30;99.90;;;;;;5139510;27;20493;-77
2023/08/17 10:29:03;;;;;;;1999.90;999.90;;;26.30;99.90;;;;;;5138840;27;20036;-80
2023/08/17 10:31:29;;;;;;;1999.90;999.90;;;26.60;99.90;;;;;;5139189;27;20038;-79
2023/08/17 10:33:57;;;;;;;1999.90;999.90;;;26.70;99.90;;;;;;5138998;27;20100;-77
2023/08/17 10:36:23;;;;;;;1999.90;999.90;;;26.90;99.90;;;;;;5137730;27;20035;-77
2023/08/17 10:39:22;;;;;;;1999.90;999.90;;;27.00;99.90;;;;;;5139480;27;20032;-77
2023/08/17 10:41:49;;;;;;;1999.90;999.90;;;27.10;99.90;;;;;;5138373;27;20028;-78
2023/08/17 10:44:15;;;;;;;1999.90;999.90;;;27.20;99.90;;;;;;5139035;27;20124;-78
2023/08/17 10:46:43;;;;;;;1999.90;999.90;;;27.40;99.90;;;;;;5140479;27;20095;-82
2023/08/17 10:49:25;;;;;;;1999.90;999.90;;;27.50;99.90;;;;;;5138874;27;20058;-85
2023/08/17 10:52:04;;;;;;;1999.90;999.90;;;27.70;99.90;;;;;;5138480;27;20463;-81
2023/08/17 10:54:38;;;;;;;1999.90;999.90;;;27.90;99.90;;;;;;5140093;27;20027;-80
2023/08/17 10:57:29;;;;;;;1999.90;999.90;;;28.10;99.90;;;;;;5141659;27;20031;-79
2023/08/17 11:00:13;;;;;;;1999.90;999.90;;;28.00;99.90;;;;;;5138781;27;20028;-79
2023/08/17 11:02:39;;;;;;;1999.90;999.90;;;28.20;99.90;;;;;;5140396;27;20031;-79
2023/08/17 11:05:07;;;;;;;1999.90;999.90;;;28.50;99.90;;;;;;5140787;27;20039;-82
2023/08/17 11:07:39;;;;;;;1999.90;999.90;;;28.70;99.90;;;;;;5139676;27;20124;-78
2023/08/17 11:10:20;;;;;;;1999.90;999.90;;;29.20;99.90;;;;;;5138830;27;20031;-79
2023/08/17 11:12:46;;;;;;;1999.90;999.90;;;29.40;99.90;;;;;;5139139;27;20039;-83
2023/08/17 11:15:12;;;;;;;1999.90;999.90;;;29.30;99.90;;;;;;5138291;27;20032;-77
2023/08/17 11:17:37;;;;;;;1999.90;999.90;;;29.30;99.90;;;;;;5153345;27;20395;-79
2023/08/17 11:20:09;;;;;;;1999.90;999.90;;;29.40;99.90;;;;;;5161109;27;20098;-79
2023/08/17 11:22:34;;;;;;;1999.90;999.90;;;29.20;99.90;;;;;;5158974;27;20100;-78
2023/08/17 11:25:00;;;;;;;1999.90;999.90;;;29.00;99.90;;;;;;5159930;27;20042;-77
2023/08/17 11:27:26;;;;;;;1999.90;999.90;;;29.00;99.90;;;;;;5158657;27;20046;-78
2023/08/17 11:29:52;;;;;;;1999.90;999.90;;;28.80;99.90;;;;;;5159091;27;20419;-79
2023/08/17 11:32:18;;;;;;;1999.90;999.90;;;29.10;99.90;;;;;;5159609;27;20035;-79
2023/08/17 11:34:43;;;;;;;1999.90;999.90;;;29.30;99.90;;;;;;5156955;27;20528;-76
2023/08/17 11:37:11;;;;;;;1999.90;999.90;;;29.30;99.90;;;;;;5156687;27;20031;-76
2023/08/17 11:39:37;;;;;;;1999.90;999.90;;;29.40;99.90;;;;;;5156887;27;20038;-76
2023/08/17 11:42:04;;;;;;;1999.90;999.90;;;29.60;99.90;;;;;;5156779;27;20036;-76
2023/08/17 11:44:29;;;;;;;1999.90;999.90;;;29.70;99.90;;;;;;5157819;27;20031;-76
2023/08/17 11:46:55;;;;;;;1999.90;999.90;;;29.80;99.90;;;;;;5159991;27;20476;-77
2023/08/17 11:49:22;;;;;;;1999.90;999.90;;;29.80;99.90;;;;;;5157972;27;20066;-77
2023/08/17 11:51:47;;;;;;;1999.90;999.90;;;30.00;99.90;;;;;;5156487;27;20031;-76
2023/08/17 11:54:13;;;;;;;1999.90;999.90;;;29.90;99.90;;;;;;5157852;27;20038;-77
2023/08/17 11:56:38;;;;;;;1999.90;999.90;;;29.90;99.90;;;;;;5154860;27;20040;-77
2023/08/17 11:59:14;;;;;;;1999.90;999.90;;;29.90;99.90;;;;;;5136444;27;20043;-77